Samui Airport
VTSM : now visible

Airfield :











YOU CAN JOIN US ON...

 
LOGIN :

Register | Disclaimer

   EN    FR    IT 

 









Legend :    VFR   Marginal VFR   IFR   Intensive IFR   Very Intensive IFR
Visi :
Ceiling :
>= 8 km
>= 3000ft
5 to 8 km
1000 to 3000 ft
1500m to 5 km
500 to 1000 ft
800 to 1500m
200 to 500 ft
< 800m
< 200 ft
Symbols :   Thunderstorms  Fog  Heavy snow  Heavy precipitations  Wind > 20 kt






- Airport Elevation : 64 ft
- IATA code : USM


VTSM - Samui

CURRENT METAR :
  • 101030Z 14008KT 9999 FEW020 31/24 Q1010 NOSIG

EXPIRED METARs :
  • 101000Z 16008KT 9999 FEW020 31/24 Q1010 NOSIG
  • 100930Z 15008KT 9999 FEW020 31/25 Q1011 NOSIG
  • 100900Z 13008KT 9999 FEW020 32/24 Q1010 NOSIG
  • 100830Z 14009KT 9999 FEW020 32/25 Q1010 NOSIG
  • 100800Z 14009KT 9999 FEW020 33/25 Q1011 NOSIG

TAF TAF VTSM
Valid from the 10 at 06:00 until the 11 at 06:00 UTC


100500Z 1006/1106 15010KT 9999 FEW020
TEMPO 1006/1012 VRB10G20KT 5000 TSRA FEW016CB SCT018 BKN100



MET'MAP, your aeronautical weather chart ! - Copyright ORBIFLY December 2007 - Disclaimer

ORBIFLY MET'MAP TEAM :

Programming & Development : Alexandra Zaïnal
Concept & original design : Baudouin d'Aumeries
Assistance for programming : Marc-Olivier Méhu
Technical & hardware support : Manuel Goepfert

Contact : metmap@orbifly.com




SOURCES & CREDITS :

   NOAA       Earth
Advisory